createdAt,value
2022-11-29T00:00:21.802Z,76.07
2022-11-29T00:02:54.588Z,76.06
2022-11-29T00:05:24.862Z,76.41
2022-11-29T00:07:55.116Z,76.56
2022-11-29T00:10:25.210Z,76.60
2022-11-29T00:12:54.983Z,77.42
2022-11-29T00:15:24.757Z,77.03
2022-11-29T00:17:54.549Z,77.36
2022-11-29T00:20:24.612Z,77.14
2022-11-29T00:22:54.364Z,77.15
2022-11-29T00:25:24.435Z,77.46
2022-11-29T00:27:54.637Z,77.91
2022-11-29T00:30:25.531Z,77.59
2022-11-29T00:32:55.499Z,77.90
2022-11-29T00:35:25.493Z,77.80
2022-11-29T00:37:55.250Z,77.92
2022-11-29T00:40:25.088Z,78.09
2022-11-29T00:42:54.869Z,78.25
2022-11-29T00:45:24.828Z,78.29
2022-11-29T00:47:54.563Z,78.67
2022-11-29T00:50:24.560Z,78.78
2022-11-29T00:52:54.316Z,78.85
2022-11-29T00:55:24.491Z,78.93
2022-11-29T00:57:54.226Z,79.00
2022-11-29T01:00:24.360Z,78.99
2022-11-29T01:02:54.154Z,79.04
2022-11-29T01:05:23.977Z,79.22
2022-11-29T01:07:53.929Z,79.55
2022-11-29T01:10:24.282Z,79.77
2022-11-29T01:12:54.472Z,79.97
2022-11-29T01:15:25.374Z,80.48
2022-11-29T01:17:56.137Z,80.54
2022-11-29T01:20:26.092Z,80.63
2022-11-29T01:22:56.372Z,80.38
2022-11-29T01:25:26.586Z,80.60
2022-11-29T01:27:56.382Z,80.58
2022-11-29T01:30:26.985Z,80.71
2022-11-29T01:32:57.041Z,80.93
2022-11-29T01:35:28.085Z,81.08
2022-11-29T01:37:58.558Z,81.01
2022-11-29T01:40:28.306Z,80.94
2022-11-29T01:42:58.088Z,81.03
2022-11-29T01:45:28.512Z,80.80
2022-11-29T01:47:59.589Z,80.95
2022-11-29T01:50:29.949Z,81.10
2022-11-29T01:53:01.779Z,81.08
2022-11-29T01:55:32.341Z,81.28
2022-11-29T01:58:03.003Z,81.30
2022-11-29T02:00:33.811Z,81.17
2022-11-29T02:03:21.501Z,81.17
2022-11-29T02:05:53.617Z,81.59
2022-11-29T02:08:51.952Z,81.70
2022-11-29T02:11:52.614Z,81.50
2022-11-29T02:14:30.837Z,82.05
2022-11-29T02:17:29.590Z,81.79
2022-11-29T02:20:38.290Z,82.24
2022-11-29T02:23:32.564Z,82.38
2022-11-29T02:26:35.621Z,82.39
2022-11-29T02:29:32.436Z,83.04
2022-11-29T02:32:20.615Z,83.30
2022-11-29T02:34:53.910Z,83.34
2022-11-29T02:37:35.543Z,83.31
2022-11-29T02:40:23.543Z,82.89
2022-11-29T02:43:07.358Z,83.61
2022-11-29T02:45:49.713Z,83.96
2022-11-29T02:48:40.082Z,83.99
2022-11-29T02:51:48.695Z,83.68
2022-11-29T02:54:28.042Z,84.15
2022-11-29T02:57:16.946Z,83.50
2022-11-29T02:59:52.584Z,84.27
2022-11-29T03:02:45.910Z,84.66
2022-11-29T03:05:24.272Z,84.79
2022-11-29T03:08:15.895Z,84.88
2022-11-29T03:10:51.514Z,84.89
2022-11-29T03:13:44.717Z,85.04
2022-11-29T03:16:52.822Z,83.90
2022-11-29T03:19:26.125Z,84.67
2022-11-29T03:22:14.518Z,84.42
2022-11-29T03:24:57.491Z,85.29
2022-11-29T03:28:07.549Z,84.49
2022-11-29T03:30:40.086Z,83.77
2022-11-29T03:33:32.695Z,85.08
2022-11-29T03:36:35.823Z,84.98
2022-11-29T03:39:11.230Z,85.53
2022-11-29T03:41:51.647Z,85.60
2022-11-29T03:44:35.400Z,85.60
2022-11-29T03:47:35.270Z,85.06
2022-11-29T03:50:28.665Z,85.11
2022-11-29T03:53:13.232Z,85.99
2022-11-29T03:55:51.932Z,85.96
2022-11-29T03:58:45.899Z,85.62
2022-11-29T04:01:46.051Z,85.79
2022-11-29T04:04:25.433Z,85.83
2022-11-29T04:07:34.148Z,85.93
2022-11-29T04:10:45.541Z,85.55
2022-11-29T04:13:57.274Z,85.26
2022-11-29T04:16:30.138Z,86.12
2022-11-29T04:19:38.790Z,86.36
2022-11-29T04:22:38.829Z,85.88
2022-11-29T04:25:35.928Z,86.74
2022-11-29T04:28:15.471Z,87.38
2022-11-29T04:31:13.249Z,87.99
2022-11-29T04:34:31.049Z,87.37
2022-11-29T04:37:19.973Z,88.05
2022-11-29T04:40:05.377Z,89.79
2022-11-29T04:42:57.495Z,89.81
2022-11-29T04:45:41.598Z,90.74
2022-11-29T04:48:23.085Z,91.51
2022-11-29T04:50:58.452Z,91.69
2022-11-29T04:53:53.033Z,92.23
2022-11-29T04:56:49.157Z,92.52
2022-11-29T04:59:21.929Z,93.32
2022-11-29T05:02:12.794Z,93.79
2022-11-29T05:05:08.626Z,94.24
2022-11-29T05:08:05.653Z,95.08
2022-11-29T05:10:54.169Z,94.91
2022-11-29T05:13:24.515Z,95.33
2022-11-29T05:16:22.848Z,95.05
2022-11-29T05:19:13.786Z,92.10
2022-11-29T05:21:54.450Z,92.13
2022-11-29T05:24:48.467Z,90.99
2022-11-29T05:27:53.395Z,90.06
2022-11-29T05:30:33.565Z,89.92
2022-11-29T05:33:15.781Z,89.60
2022-11-29T05:36:03.485Z,89.23
2022-11-29T05:38:42.414Z,89.96
2022-11-29T05:41:27.014Z,89.67
2022-11-29T05:44:23.851Z,90.09
2022-11-29T05:47:11.274Z,91.31
2022-11-29T05:49:54.446Z,92.78
2022-11-29T05:52:36.742Z,92.75
2022-11-29T05:55:31.481Z,91.28
2022-11-29T05:58:37.385Z,93.06
2022-11-29T06:01:24.567Z,92.63
2022-11-29T06:04:03.016Z,93.85
2022-11-29T06:06:40.766Z,94.63
2022-11-29T06:09:20.641Z,95.25
2022-11-29T06:12:06.597Z,95.45
2022-11-29T06:15:35.694Z,95.79
2022-11-29T06:18:43.766Z,96.19
2022-11-29T06:51:18.137Z,99.99
2022-11-29T06:53:56.252Z,99.99
2022-11-29T06:56:31.740Z,99.99
2022-11-29T06:59:20.880Z,99.99
2022-11-29T07:02:14.184Z,99.99
2022-11-29T07:05:01.496Z,99.99
2022-11-29T07:07:32.789Z,99.99
2022-11-29T07:10:05.619Z,99.99
2022-11-29T07:12:37.592Z,99.99
2022-11-29T07:15:08.019Z,99.99
2022-11-29T07:17:44.653Z,99.99
2022-11-29T07:20:17.790Z,99.99
2022-11-29T07:23:04.521Z,99.99
2022-11-29T07:25:43.299Z,99.99
2022-11-29T07:28:40.884Z,99.99
2022-11-29T07:31:19.312Z,99.99
2022-11-29T07:34:00.755Z,99.99
2022-11-29T07:36:30.637Z,99.99
2022-11-29T07:39:32.490Z,99.99
2022-11-29T07:42:12.422Z,99.99
2022-11-29T07:44:54.715Z,99.99
2022-11-29T07:47:24.718Z,99.99
2022-11-29T07:49:54.922Z,99.99
2022-11-29T07:52:25.154Z,99.99
2022-11-29T07:54:54.899Z,99.99
2022-11-29T07:57:24.650Z,99.99
2022-11-29T07:59:54.426Z,99.99
2022-11-29T08:02:33.231Z,99.99
2022-11-29T08:05:03.633Z,99.99
2022-11-29T08:07:36.974Z,99.99
2022-11-29T08:10:11.745Z,99.99
2022-11-29T08:12:48.572Z,99.99
2022-11-29T08:15:21.544Z,99.99
2022-11-29T08:17:52.294Z,99.99
2022-11-29T08:20:22.337Z,99.99
2022-11-29T08:22:57.502Z,99.99
2022-11-29T08:25:29.210Z,99.99
2022-11-29T08:27:59.544Z,99.99
2022-11-29T08:30:29.408Z,99.99
2022-11-29T08:32:59.506Z,99.99
2022-11-29T08:35:29.374Z,99.99
2022-11-29T08:37:59.217Z,99.99
2022-11-29T08:40:29.476Z,99.99
2022-11-29T08:42:59.830Z,99.99
2022-11-29T08:45:30.102Z,99.99
2022-11-29T08:48:00.015Z,99.99
2022-11-29T08:50:30.405Z,99.99
2022-11-29T08:53:18.576Z,99.99
2022-11-29T08:55:48.587Z,99.99
2022-11-29T08:58:18.857Z,99.99
2022-11-29T09:00:49.914Z,99.99
2022-11-29T09:03:38.095Z,99.99
2022-11-29T09:06:14.722Z,99.99
2022-11-29T09:08:46.322Z,99.99
2022-11-29T09:11:21.064Z,99.99
2022-11-29T09:13:54.182Z,99.99
2022-11-29T09:16:26.809Z,99.99
2022-11-29T09:18:57.239Z,99.99
2022-11-29T09:21:29.264Z,99.99
2022-11-29T09:24:01.921Z,99.99
2022-11-29T09:26:35.974Z,99.94
2022-11-29T09:29:08.692Z,97.39
2022-11-29T09:31:39.422Z,95.28
2022-11-29T09:34:09.319Z,94.31
2022-11-29T09:36:39.187Z,93.51
2022-11-29T09:39:09.072Z,92.31
2022-11-29T09:41:59.743Z,91.10
2022-11-29T09:44:37.990Z,89.87
2022-11-29T09:47:34.248Z,89.94
2022-11-29T09:50:32.013Z,88.60
2022-11-29T09:53:30.901Z,88.10
2022-11-29T09:56:13.978Z,86.98
2022-11-29T09:59:13.003Z,85.39
2022-11-29T10:01:54.231Z,84.03
2022-11-29T10:04:31.198Z,82.87
2022-11-29T10:07:29.726Z,83.73
2022-11-29T10:10:08.368Z,83.17
2022-11-29T10:13:21.505Z,81.48
2022-11-29T10:15:57.229Z,81.05
2022-11-29T10:18:58.067Z,82.92
2022-11-29T10:21:33.868Z,81.34
2022-11-29T10:24:11.168Z,83.94
2022-11-29T10:26:41.286Z,82.05
2022-11-29T10:29:18.391Z,82.05
2022-11-29T10:31:50.596Z,82.36
2022-11-29T10:34:24.578Z,81.38
2022-11-29T10:37:02.509Z,80.61
2022-11-29T10:39:40.809Z,80.87
2022-11-29T10:42:40.543Z,80.48
2022-11-29T10:45:28.647Z,81.02
2022-11-29T10:48:12.125Z,79.52
2022-11-29T10:50:45.473Z,79.06
2022-11-29T10:53:17.995Z,78.46
2022-11-29T10:56:02.699Z,77.90
2022-11-29T10:58:33.314Z,77.87
2022-11-29T11:01:07.938Z,76.21
2022-11-29T11:03:53.051Z,76.06
2022-11-29T11:06:26.878Z,76.10
2022-11-29T11:08:59.286Z,75.38
2022-11-29T11:11:33.619Z,74.31
2022-11-29T11:14:24.643Z,75.87
2022-11-29T11:16:56.759Z,75.72
2022-11-29T11:19:33.642Z,75.76
2022-11-29T11:22:05.661Z,75.87
2022-11-29T11:24:40.861Z,74.77
2022-11-29T11:27:11.418Z,74.05
2022-11-29T11:29:46.126Z,74.40
2022-11-29T11:32:21.368Z,74.75
2022-11-29T11:34:56.942Z,75.19
2022-11-29T11:37:31.461Z,74.55
2022-11-29T11:40:30.298Z,76.30
2022-11-29T11:43:02.858Z,74.45
2022-11-29T11:45:38.054Z,71.79
2022-11-29T11:48:17.938Z,73.12
2022-11-29T11:51:00.526Z,73.60
2022-11-29T11:53:32.255Z,73.00
2022-11-29T11:56:11.961Z,73.44
2022-11-29T11:59:02.802Z,74.78
2022-11-29T12:01:39.409Z,73.43
2022-11-29T12:04:23.944Z,73.82
2022-11-29T12:07:17.449Z,73.73
2022-11-29T12:09:53.404Z,71.62
2022-11-29T12:12:28.217Z,71.78
2022-11-29T12:15:22.116Z,73.08
2022-11-29T12:18:32.471Z,73.25
2022-11-29T12:21:23.502Z,71.56
2022-11-29T12:24:28.148Z,71.14
2022-11-29T12:27:04.801Z,70.90
2022-11-29T12:29:36.845Z,69.86
2022-11-29T12:32:37.621Z,71.44
2022-11-29T12:35:46.087Z,70.91
2022-11-29T12:38:50.230Z,70.84
2022-11-29T12:41:35.018Z,70.08
2022-11-29T12:44:34.457Z,69.82
2022-11-29T12:47:35.109Z,68.56
2022-11-29T12:50:31.205Z,68.33
2022-11-29T12:53:07.405Z,66.50
2022-11-29T12:55:45.592Z,65.21
2022-11-29T12:58:20.163Z,67.23
2022-11-29T13:00:57.191Z,66.30
2022-11-29T13:03:45.842Z,65.01
2022-11-29T13:06:45.309Z,65.73
2022-11-29T13:09:20.888Z,66.08
2022-11-29T13:12:04.929Z,70.60
2022-11-29T13:14:43.063Z,69.40
2022-11-29T13:17:45.654Z,69.10
2022-11-29T13:20:27.571Z,68.19
2022-11-29T13:23:15.946Z,67.31
2022-11-29T13:25:53.043Z,70.92
2022-11-29T13:28:34.215Z,68.80
2022-11-29T13:31:09.191Z,67.42
2022-11-29T13:33:43.300Z,69.84
2022-11-29T13:36:52.277Z,69.02
2022-11-29T13:39:49.950Z,66.43
2022-11-29T13:42:23.088Z,63.83
2022-11-29T13:45:19.825Z,65.42
2022-11-29T13:48:01.478Z,65.56
2022-11-29T13:50:47.848Z,64.59
2022-11-29T13:53:26.833Z,61.26
2022-11-29T13:56:02.973Z,63.15
2022-11-29T13:58:36.123Z,61.80
2022-11-29T14:01:15.794Z,64.05
2022-11-29T14:03:52.548Z,64.77
2022-11-29T14:06:33.429Z,64.72
2022-11-29T14:09:30.265Z,66.46
2022-11-29T14:12:27.139Z,64.35
2022-11-29T14:15:04.426Z,62.91
2022-11-29T14:17:58.559Z,61.74
2022-11-29T14:20:31.027Z,60.87
2022-11-29T14:23:07.737Z,58.64
2022-11-29T14:25:54.983Z,58.72
2022-11-29T14:28:25.189Z,58.36
2022-11-29T14:30:58.313Z,59.84
2022-11-29T14:33:46.682Z,61.42
2022-11-29T14:36:22.423Z,63.12
2022-11-29T14:39:04.556Z,61.72
2022-11-29T14:42:01.709Z,63.45
2022-11-29T14:44:34.512Z,63.44
2022-11-29T14:47:08.542Z,61.26
2022-11-29T14:49:46.631Z,61.84
2022-11-29T14:52:17.494Z,63.32
2022-11-29T14:55:17.280Z,62.24
2022-11-29T14:58:03.069Z,60.87
2022-11-29T15:00:48.419Z,61.51
2022-11-29T15:03:18.344Z,59.33
2022-11-29T15:06:11.720Z,61.06
2022-11-29T15:09:06.091Z,61.00
2022-11-29T15:11:48.073Z,61.55
2022-11-29T15:14:21.901Z,59.18
2022-11-29T15:17:00.888Z,57.93
2022-11-29T15:20:07.074Z,61.48
2022-11-29T15:22:53.452Z,61.82
2022-11-29T15:25:34.369Z,61.61
2022-11-29T15:28:07.840Z,62.96
2022-11-29T15:30:41.423Z,62.92
2022-11-29T15:33:26.162Z,64.09
2022-11-29T15:35:58.456Z,61.88
2022-11-29T15:38:29.681Z,60.38
2022-11-29T15:41:00.028Z,60.31
2022-11-29T15:43:39.957Z,60.58
2022-11-29T15:46:21.049Z,59.97
2022-11-29T15:48:52.100Z,59.67
2022-11-29T15:51:24.916Z,60.59
2022-11-29T15:54:13.113Z,61.78
2022-11-29T15:56:54.061Z,59.93
2022-11-29T15:59:42.721Z,57.22
2022-11-29T16:02:27.697Z,60.54
2022-11-29T16:05:04.585Z,62.47
2022-11-29T16:07:35.357Z,64.10
2022-11-29T16:10:18.886Z,58.77
2022-11-29T16:12:57.741Z,59.47
2022-11-29T16:15:33.509Z,62.95
2022-11-29T16:18:25.109Z,64.09
2022-11-29T16:21:03.468Z,64.50
2022-11-29T16:23:40.449Z,63.77
2022-11-29T16:26:13.507Z,63.21
2022-11-29T16:28:46.003Z,67.17
2022-11-29T16:31:40.856Z,66.79
2022-11-29T16:34:21.238Z,65.10
2022-11-29T16:37:08.533Z,64.78
2022-11-29T16:39:40.620Z,65.26
2022-11-29T16:42:24.861Z,64.53
2022-11-29T16:45:07.205Z,64.84
2022-11-29T16:48:02.753Z,64.51
2022-11-29T16:50:34.302Z,64.52
2022-11-29T16:53:45.372Z,65.07
2022-11-29T16:56:18.525Z,64.21
2022-11-29T16:59:24.555Z,64.02
2022-11-29T17:01:44.219Z,64.14
2022-11-29T17:04:23.393Z,63.71
2022-11-29T17:06:57.905Z,64.06
2022-11-29T17:09:31.562Z,62.66
2022-11-29T17:12:03.280Z,62.72
2022-11-29T17:14:34.443Z,64.11
2022-11-29T17:17:04.768Z,63.34
2022-11-29T17:19:34.605Z,62.29
2022-11-29T17:22:05.397Z,63.60
2022-11-29T17:24:35.755Z,64.22
2022-11-29T17:27:05.743Z,64.28
2022-11-29T17:29:35.554Z,64.34
2022-11-29T17:32:05.749Z,65.11
2022-11-29T17:34:35.937Z,62.54
2022-11-29T17:37:06.047Z,63.22
2022-11-29T17:39:36.106Z,64.20
2022-11-29T17:42:06.245Z,63.19
2022-11-29T17:44:59.777Z,66.39
2022-11-29T17:47:31.374Z,66.62
2022-11-29T17:50:03.084Z,64.64
2022-11-29T17:52:54.728Z,65.38
2022-11-29T17:55:29.400Z,62.92
2022-11-29T17:58:22.303Z,65.49
2022-11-29T18:01:12.287Z,64.67
2022-11-29T18:04:05.625Z,64.03
2022-11-29T18:06:55.007Z,66.40
2022-11-29T18:09:27.743Z,65.48
2022-11-29T18:12:17.238Z,66.84
2022-11-29T18:14:48.028Z,66.46
2022-11-29T18:17:19.428Z,66.71
2022-11-29T18:20:09.406Z,68.34
2022-11-29T18:22:39.135Z,67.14
2022-11-29T18:25:37.697Z,67.54
2022-11-29T18:28:20.735Z,67.92
2022-11-29T18:31:13.560Z,67.77
2022-11-29T18:33:49.464Z,68.33
2022-11-29T18:36:28.427Z,66.68
2022-11-29T18:39:01.650Z,66.29
2022-11-29T18:41:34.456Z,65.41
2022-11-29T18:44:44.167Z,65.30
2022-11-29T18:47:55.503Z,65.40
2022-11-29T18:50:28.552Z,64.78
2022-11-29T18:52:59.738Z,64.78
2022-11-29T18:55:30.822Z,65.10
2022-11-29T18:58:43.225Z,64.91
2022-11-29T19:01:18.543Z,64.62
2022-11-29T19:03:51.722Z,65.56
2022-11-29T19:06:26.370Z,65.42
2022-11-29T19:08:58.142Z,65.32
2022-11-29T19:11:31.642Z,65.37
2022-11-29T19:14:05.069Z,65.77
2022-11-29T19:16:40.104Z,66.91
2022-11-29T19:19:10.410Z,65.97
2022-11-29T19:22:01.283Z,65.02
2022-11-29T19:24:35.250Z,64.80
2022-11-29T19:27:27.206Z,66.02
2022-11-29T19:30:02.005Z,67.15
2022-11-29T19:32:34.141Z,67.54
2022-11-29T19:35:08.358Z,66.67
2022-11-29T19:38:24.506Z,67.96
2022-11-29T19:40:58.234Z,67.49
2022-11-29T19:43:32.167Z,68.02
2022-11-29T19:46:33.070Z,69.56
2022-11-29T19:49:03.892Z,69.89
2022-11-29T19:51:34.777Z,69.81
2022-11-29T19:54:07.345Z,69.93
2022-11-29T19:56:37.915Z,69.56
2022-11-29T19:59:09.971Z,69.99
2022-11-29T20:01:42.555Z,69.65
2022-11-29T20:04:14.450Z,70.50
2022-11-29T20:06:45.787Z,70.37
2022-11-29T20:09:15.949Z,70.37
2022-11-29T20:11:45.990Z,70.97
2022-11-29T20:14:16.206Z,70.94
2022-11-29T20:16:46.577Z,70.99
2022-11-29T20:19:18.368Z,71.45
2022-11-29T20:21:49.820Z,70.09
2022-11-29T20:24:20.605Z,70.00
2022-11-29T20:26:51.312Z,70.08
2022-11-29T20:29:22.949Z,69.55
2022-11-29T20:31:53.147Z,69.24
2022-11-29T20:34:23.531Z,69.29
2022-11-29T20:37:20.097Z,69.69
2022-11-29T20:39:52.948Z,69.87
2022-11-29T20:42:40.758Z,69.70
2022-11-29T20:45:14.582Z,69.46
2022-11-29T20:47:47.040Z,69.75
2022-11-29T20:50:23.838Z,70.23
2022-11-29T20:53:20.233Z,69.90
2022-11-29T20:55:51.216Z,70.44
2022-11-29T20:58:21.291Z,70.73
2022-11-29T21:00:51.117Z,70.63
2022-11-29T21:03:21.840Z,70.83
2022-11-29T21:05:53.288Z,71.01
2022-11-29T21:08:26.942Z,71.15
2022-11-29T21:11:03.853Z,71.66
2022-11-29T21:13:34.867Z,71.03
2022-11-29T21:16:05.615Z,71.16
2022-11-29T21:18:36.402Z,70.91
2022-11-29T21:21:26.440Z,70.73
2022-11-29T21:23:59.041Z,71.00
2022-11-29T21:26:32.332Z,70.62
2022-11-29T21:29:19.691Z,70.31
2022-11-29T21:32:23.285Z,70.52
2022-11-29T21:35:00.369Z,70.96
2022-11-29T21:37:32.298Z,71.28
2022-11-29T21:40:02.214Z,71.28
2022-11-29T21:42:41.562Z,70.77
2022-11-29T21:45:15.974Z,70.24
2022-11-29T21:47:49.703Z,70.82
2022-11-29T21:50:21.381Z,71.59
2022-11-29T21:52:54.617Z,71.73
2022-11-29T21:55:32.349Z,71.84
2022-11-29T21:58:07.689Z,71.78
2022-11-29T22:00:41.347Z,70.56
2022-11-29T22:03:32.598Z,70.69
2022-11-29T22:06:05.459Z,70.91
2022-11-29T22:08:42.384Z,71.61
2022-11-29T22:11:36.416Z,72.90
2022-11-29T22:14:25.478Z,74.25
2022-11-29T22:16:59.071Z,76.22
2022-11-29T22:19:33.521Z,78.30
2022-11-29T22:22:08.175Z,80.04
2022-11-29T22:24:39.585Z,81.17
2022-11-29T22:27:09.332Z,84.19
2022-11-29T22:29:39.928Z,85.47
2022-11-29T22:32:09.989Z,87.57
2022-11-29T22:34:41.205Z,87.36
2022-11-29T22:37:13.581Z,87.55
2022-11-29T22:40:08.339Z,87.86
2022-11-29T22:42:40.889Z,88.39
2022-11-29T22:45:14.291Z,89.11
2022-11-29T22:47:48.877Z,89.83
2022-11-29T22:50:38.906Z,90.53
2022-11-29T22:53:30.054Z,90.86
2022-11-29T22:56:01.674Z,91.92
2022-11-29T22:58:55.777Z,92.53
2022-11-29T23:01:30.066Z,91.56
2022-11-29T23:04:22.592Z,92.03
2022-11-29T23:07:16.904Z,91.72
2022-11-29T23:09:46.756Z,90.87
2022-11-29T23:12:17.590Z,91.82
2022-11-29T23:14:51.570Z,90.42
2022-11-29T23:17:25.027Z,91.05
2022-11-29T23:20:04.623Z,90.92
2022-11-29T23:22:39.750Z,90.51
2022-11-29T23:25:09.814Z,89.83
2022-11-29T23:27:39.788Z,89.94
2022-11-29T23:30:10.103Z,90.33
2022-11-29T23:32:39.605Z,90.36
2022-11-29T23:35:09.332Z,90.14
2022-11-29T23:37:38.844Z,90.05
2022-11-29T23:40:09.295Z,90.33
2022-11-29T23:42:41.357Z,90.29
2022-11-29T23:45:13.697Z,90.43
2022-11-29T23:47:43.232Z,90.23
2022-11-29T23:50:13.180Z,89.86
2022-11-29T23:52:42.703Z,90.09
2022-11-29T23:55:15.630Z,89.87
2022-11-29T23:57:46.714Z,90.49
